sensor_id;sensor_type;location;lat;lon;timestamp;pressure;altitude;pressure_sealevel;temperature;humidity
61361;BME280;47232;47.506;18.936;2023-04-05T06:03:29;98531.29;;;0.02;50.78
61361;BME280;47232;47.506;18.936;2023-04-05T06:06:56;98529.70;;;0.16;50.44
61361;BME280;47232;47.506;18.936;2023-04-05T06:10:22;98527.05;;;0.29;49.98
61361;BME280;47232;47.506;18.936;2023-04-05T06:13:48;98527.94;;;0.43;49.87
61361;BME280;47232;47.506;18.936;2023-04-05T06:17:14;98526.02;;;0.59;49.37
61361;BME280;47232;47.506;18.936;2023-04-05T06:20:42;98523.66;;;0.74;48.94
61361;BME280;47232;47.506;18.936;2023-04-05T06:24:08;98529.31;;;0.90;48.56
61361;BME280;47232;47.506;18.936;2023-04-05T06:27:34;98530.64;;;1.04;47.91
61361;BME280;47232;47.506;18.936;2023-04-05T06:31:00;98531.98;;;1.15;47.54
61361;BME280;47232;47.506;18.936;2023-04-05T06:34:26;98523.33;;;1.28;47.16
61361;BME280;47232;47.506;18.936;2023-04-05T06:37:53;98525.23;;;1.39;46.60
61361;BME280;47232;47.506;18.936;2023-04-05T06:41:13;98519.65;;;1.51;46.50
61361;BME280;47232;47.506;18.936;2023-04-05T06:44:43;98527.74;;;1.66;46.01
61361;BME280;47232;47.506;18.936;2023-04-05T06:48:09;98530.60;;;1.79;45.51
61361;BME280;47232;47.506;18.936;2023-04-05T06:51:35;98530.35;;;1.90;45.18
61361;BME280;47232;47.506;18.936;2023-04-05T06:55:01;98532.77;;;2.03;44.34
61361;BME280;47232;47.506;18.936;2023-04-05T06:58:28;98528.92;;;2.15;44.49
61361;BME280;47232;47.506;18.936;2023-04-05T07:01:54;98525.71;;;2.30;44.07
61361;BME280;47232;47.506;18.936;2023-04-05T07:05:20;98527.57;;;2.41;43.58
61361;BME280;47232;47.506;18.936;2023-04-05T07:08:46;98529.11;;;2.52;43.57
61361;BME280;47232;47.506;18.936;2023-04-05T07:12:12;98531.56;;;2.66;43.41
61361;BME280;47232;47.506;18.936;2023-04-05T07:15:38;98533.08;;;2.83;43.22
61361;BME280;47232;47.506;18.936;2023-04-05T07:19:05;98534.54;;;3.01;42.90
61361;BME280;47232;47.506;18.936;2023-04-05T07:22:31;98537.02;;;3.16;42.59
61361;BME280;47232;47.506;18.936;2023-04-05T07:26:00;98535.35;;;3.29;41.89
61361;BME280;47232;47.506;18.936;2023-04-05T07:29:26;98532.91;;;3.40;41.93
61361;BME280;47232;47.506;18.936;2023-04-05T07:32:52;98533.45;;;3.53;41.98
61361;BME280;47232;47.506;18.936;2023-04-05T07:36:18;98534.14;;;3.65;41.86
61361;BME280;47232;47.506;18.936;2023-04-05T07:39:56;98534.78;;;3.76;41.27
61361;BME280;47232;47.506;18.936;2023-04-05T07:43:22;98532.70;;;3.91;41.27
61361;BME280;47232;47.506;18.936;2023-04-05T07:46:48;98534.61;;;4.08;41.19
61361;BME280;47232;47.506;18.936;2023-04-05T07:53:47;98536.88;;;4.19;40.56
61361;BME280;47232;47.506;18.936;2023-04-05T07:57:16;98538.30;;;4.33;40.53
61361;BME280;47232;47.506;18.936;2023-04-05T08:00:42;98536.76;;;4.47;40.36
61361;BME280;47232;47.506;18.936;2023-04-05T08:04:08;98536.23;;;4.62;40.06
61361;BME280;47232;47.506;18.936;2023-04-05T08:07:34;98533.63;;;4.76;39.88
61361;BME280;47232;47.506;18.936;2023-04-05T08:11:03;98529.40;;;4.94;39.99
61361;BME280;47232;47.506;18.936;2023-04-05T08:14:29;98523.77;;;5.11;39.73
61361;BME280;47232;47.506;18.936;2023-04-05T08:17:55;98527.86;;;5.29;39.67
61361;BME280;47232;47.506;18.936;2023-04-05T08:21:22;98528.94;;;5.47;39.09
61361;BME280;47232;47.506;18.936;2023-04-05T08:24:48;98532.97;;;5.53;38.55
61361;BME280;47232;47.506;18.936;2023-04-05T08:28:14;98525.87;;;5.66;38.41
61361;BME280;47232;47.506;18.936;2023-04-05T08:31:43;98527.40;;;5.85;38.37
61361;BME280;47232;47.506;18.936;2023-04-05T08:35:09;98523.30;;;6.01;38.16
61361;BME280;47232;47.506;18.936;2023-04-05T08:38:35;98519.64;;;6.13;37.92
61361;BME280;47232;47.506;18.936;2023-04-05T08:42:10;98522.65;;;6.29;38.14
61361;BME280;47232;47.506;18.936;2023-04-05T08:45:33;98519.72;;;6.43;36.96
61361;BME280;47232;47.506;18.936;2023-04-05T08:49:06;98519.98;;;6.45;35.87
61361;BME280;47232;47.506;18.936;2023-04-05T08:52:31;98514.58;;;6.45;36.52
61361;BME280;47232;47.506;18.936;2023-04-05T08:55:57;98514.81;;;6.48;35.84
61361;BME280;47232;47.506;18.936;2023-04-05T08:59:23;98512.37;;;6.53;35.68
61361;BME280;47232;47.506;18.936;2023-04-05T09:02:50;98507.80;;;6.62;35.32
61361;BME280;47232;47.506;18.936;2023-04-05T09:06:15;98517.64;;;6.85;36.17
61361;BME280;47232;47.506;18.936;2023-04-05T09:09:56;98512.80;;;6.97;35.33
61361;BME280;47232;47.506;18.936;2023-04-05T09:13:20;98510.25;;;6.85;35.28
61361;BME280;47232;47.506;18.936;2023-04-05T15:56:24;98367.27;;;22.31;13.45
61361;BME280;47232;47.506;18.936;2023-04-05T18:37:29;98418.33;;;6.65;29.44
